• Join FlightAware (Why Join?)
  • Login
  • US Flag 
12:38AM EDT


 

Airport Tracker/Info


-or-


 

Live Flight TrackerFlight Track Log ✈ ASH2780 ✈ 12-May-2013 ✈ KPHX - KSBA

Flight Track Log - Related Links

Times and Time Zones

All times are in EDT time to prevent confusion due to time zone crossing. See the ASH2780 flight status page for this flight to view local times or setup timezone preferences in your user account.

Time Position Orientation Groundspeed Altitude Reporting Facility
EDT Latitude Longitude Course Direction KTS MPH feet Rate Location/Type
01:32PM 33.4333 -111.9833 270° West 173 199 2,200  Level Phoenix TRACON
01:32PM 33.4333 -111.9167 90° East 210 242 3,100 1,800 Climbing Phoenix TRACON
01:33PM 33.4167 -111.8333 103° East 272 313 5,500 2,100 Climbing Phoenix TRACON
01:34PM 33.4341 -112.4009 273° West  Level FlightAware Approximate
01:34PM 33.4186 -111.8314 40° Northeast 253 291 5,800  Level Albuquerque Center
01:35PM 33.4395 -112.5344 273° West  Level FlightAware Approximate
01:35PM 33.3469 -111.8603 199° South 294 338 8,400  Level Albuquerque Center
01:36PM 33.4449 -112.6679 273° West  Level FlightAware Approximate
01:36PM 33.3139 -111.9686 250° West 311 358 11,600  Level Albuquerque Center
01:37PM 33.4500 -112.8014 270° West  Level FlightAware Approximate
01:37PM 33.3325 -112.0739 282° West 320 368 14,100  Level Albuquerque Center
01:38PM 33.3494 -112.1828 281° West 327 376 15,900 1,740 Climbing Albuquerque Center
01:39PM 33.3697 -112.3050 281° West 354 407 17,800 1,740 Climbing Albuquerque Center
01:40PM 33.3906 -112.4344 281° West 380 437 19,500 1,800 Climbing Albuquerque Center
01:41PM 33.4122 -112.5669 281° West 396 456 21,500 1,800 Climbing Albuquerque Center
01:42PM 33.4356 -112.7136 281° West 409 471 23,200 1,620 Climbing Albuquerque Center
01:43PM 33.4581 -112.8506 281° West 417 480 24,900 1,260 Climbing Albuquerque Center
01:44PM 33.4853 -112.9889 283° West 424 488 25,900 960 Climbing Albuquerque Center
01:45PM 33.5125 -113.1328 283° West 438 504 26,900 1,020 Climbing Albuquerque Center
01:46PM 33.5481 -113.3131 283° West 459 528 28,100 1,020 Climbing Albuquerque Center
01:47PM 33.5764 -113.4653 283° West 467 537 29,100 1,020 Climbing Albuquerque Center
01:48PM 33.6053 -113.6222 283° West 479 551 30,300 900 Climbing Albuquerque Center
01:49PM 33.6342 -113.7717 283° West 482 555 31,000 780 Climbing Albuquerque Center
01:50PM 33.6681 -113.9628 282° West 488 562 32,000 480 Climbing Albuquerque Center
01:51PM 33.6978 -114.1214 283° West 488 562 32,000  Level Albuquerque Center
01:52PM 33.7286 -114.2839 283° West 483 556 32,000  Level Albuquerque Center
01:53PM 33.7564 -114.4406 282° West 482 555 32,000  Level Albuquerque Center
01:54PM 33.7642 -114.4833 282° West 483 556 32,000  Level Los Angeles Center
01:55PM 33.7900 -114.6433 281° West 489 563 32,000  Level Los Angeles Center
01:56PM 33.8197 -114.8397 280° West 500 575 32,000  Level Los Angeles Center
01:57PM 33.8436 -115.0044 280° West 503 579 32,000  Level Los Angeles Center
01:58PM 33.8675 -115.1689 280° West 500 575 32,000  Level Los Angeles Center
01:59PM 33.8928 -115.3314 281° West 497 572 32,000  Level Los Angeles Center
02:00PM 33.9144 -115.4928 279° West 493 567 32,000  Level Los Angeles Center
02:01PM 33.9375 -115.6536 280° West 491 565 32,000  Level Los Angeles Center
02:02PM 33.9656 -115.8489 280° West 497 572 32,000  Level Los Angeles Center
02:03PM 33.9894 -116.0131 280° West 500 575 32,000  Level Los Angeles Center
02:04PM 34.0119 -116.1789 279° West 504 580 32,000  Level Los Angeles Center
02:05PM 34.0356 -116.3419 280° West 498 573 32,000  Level Los Angeles Center
02:06PM 34.0569 -116.5014 279° West 489 563 32,000  Level Los Angeles Center
02:07PM 34.0825 -116.6908 279° West 482 555 32,000  Level Los Angeles Center
02:08PM 34.1036 -116.8503 279° West 483 556 32,000  Level Los Angeles Center
02:09PM 34.1261 -117.0158 279° West 485 558 32,000  Level Los Angeles Center
02:10PM 34.1472 -117.1750 279° West 484 557 32,000  Level Los Angeles Center
02:11PM 34.1664 -117.3344 278° West 483 556 32,000  Level Los Angeles Center
02:12PM 34.1875 -117.4936 279° West 484 557 32,000  Level Los Angeles Center
02:13PM 34.2125 -117.6872 279° West 490 564 32,000  Level Los Angeles Center
02:14PM 34.2328 -117.8461 279° West 486 559 32,000  Level Los Angeles Center
02:15PM 34.2525 -118.0075 278° West 492 566 32,000  Level Los Angeles Center
02:16PM 34.2731 -118.1650 279° West 482 555 32,000  Level Los Angeles Center
02:17PM 34.2919 -118.3250 278° West 483 556 32,000 -300 Level Los Angeles Center
02:19PM 34.3147 -118.5161 278° West 484 557 31,500 -1,260 Descending Los Angeles Center
02:20PM 34.3325 -118.6694 278° West 478 550 29,500 -1,980 Descending Los Angeles Center
02:21PM 34.3478 -118.8103 278° West 441 507 27,500 -2,040 Descending Los Angeles Center
02:22PM 34.3503 -118.9478 271° West 413 475 25,300 -2,580 Descending Los Angeles Center
02:23PM 34.3419 -119.0853 266° West 410 472 22,200 -3,300 Descending Los Angeles Center
02:24PM 34.3297 -119.2433 265° West 396 456 18,600 -3,300 Descending Los Angeles Center
02:24PM 34.3278 -119.2783 266° West 388 447 17,800 -2,700 Descending Los Angeles Center
02:24PM 34.3236 -119.3267 264° West 377 434 16,700 -2,880 Descending Los Angeles Center
02:25PM 34.3208 -119.3661 265° West 371 427 15,700 -2,820 Descending Los Angeles Center
02:25PM 34.3061 -119.4600 259° West 350 403 13,600 -2,400 Descending Los Angeles Center
02:26PM 34.3017 -119.4814 256° West 353 406 13,200 -2,280 Descending Los Angeles Center
02:27PM 34.2722 -119.5597 246° West 309 356 11,300 -2,160 Descending Los Angeles Center
02:27PM 34.2664 -119.5692 233° Southwest 302 348 11,000 -2,460 Descending Los Angeles Center
02:28PM 34.2197 -119.6342 229° Southwest 298 343 8,800 -2,340 Descending Los Angeles Center
02:28PM 34.2133 -119.6456 236° Southwest 295 339 8,600 -840 Descending Los Angeles Center
02:29PM 34.2436 -119.7017 303° West 239 275 8,000 -780 Descending Los Angeles Center
02:29PM 34.2611 -119.7092 340° North 234 269 7,800 -1,620 Descending Los Angeles Center
02:30PM 34.2886 -119.7289 329° Northwest 181 208 6,400 -2,160 Descending Los Angeles Center
02:30PM 34.3019 -119.7372 333° Northwest 185 213 5,600 -2,400 Descending Los Angeles Center